sensor_id;sensor_type;location;lat;lon;timestamp;P1;durP1;ratioP1;P2;durP2;ratioP2
24439;SDS011;12618;54.386;18.394;2023-06-22T00:00:32;12.60;;;10.90;;
24439;SDS011;12618;54.386;18.394;2023-06-22T00:03:04;13.50;;;12.00;;
24439;SDS011;12618;54.386;18.394;2023-06-22T00:05:36;13.40;;;12.00;;
24439;SDS011;12618;54.386;18.394;2023-06-22T00:08:08;15.90;;;12.30;;
24439;SDS011;12618;54.386;18.394;2023-06-22T00:10:40;13.40;;;11.60;;
24439;SDS011;12618;54.386;18.394;2023-06-22T00:13:12;13.80;;;12.00;;
24439;SDS011;12618;54.386;18.394;2023-06-22T00:15:44;11.80;;;10.60;;
24439;SDS011;12618;54.386;18.394;2023-06-22T00:18:17;14.30;;;11.80;;
24439;SDS011;12618;54.386;18.394;2023-06-22T00:20:51;14.90;;;11.60;;
24439;SDS011;12618;54.386;18.394;2023-06-22T00:23:28;13.80;;;11.30;;
24439;SDS011;12618;54.386;18.394;2023-06-22T00:26:05;15.80;;;12.10;;
24439;SDS011;12618;54.386;18.394;2023-06-22T00:28:37;15.30;;;11.70;;
24439;SDS011;12618;54.386;18.394;2023-06-22T00:31:11;15.90;;;12.20;;
24439;SDS011;12618;54.386;18.394;2023-06-22T00:33:45;14.00;;;12.50;;
24439;SDS011;12618;54.386;18.394;2023-06-22T00:36:17;14.50;;;12.20;;
24439;SDS011;12618;54.386;18.394;2023-06-22T00:38:50;18.20;;;11.30;;
24439;SDS011;12618;54.386;18.394;2023-06-22T00:41:22;15.40;;;12.50;;
24439;SDS011;12618;54.386;18.394;2023-06-22T00:43:53;14.00;;;11.30;;
24439;SDS011;12618;54.386;18.394;2023-06-22T00:46:26;13.90;;;11.70;;
24439;SDS011;12618;54.386;18.394;2023-06-22T00:48:57;12.60;;;10.80;;
24439;SDS011;12618;54.386;18.394;2023-06-22T00:51:29;15.70;;;11.10;;
24439;SDS011;12618;54.386;18.394;2023-06-22T00:54:01;14.60;;;11.40;;
24439;SDS011;12618;54.386;18.394;2023-06-22T00:56:33;15.70;;;11.50;;
24439;SDS011;12618;54.386;18.394;2023-06-22T00:59:05;12.40;;;10.80;;
24439;SDS011;12618;54.386;18.394;2023-06-22T01:01:37;14.40;;;11.20;;
24439;SDS011;12618;54.386;18.394;2023-06-22T01:04:12;14.20;;;10.80;;
24439;SDS011;12618;54.386;18.394;2023-06-22T01:06:45;14.30;;;10.40;;
24439;SDS011;12618;54.386;18.394;2023-06-22T01:09:48;12.20;;;10.10;;
24439;SDS011;12618;54.386;18.394;2023-06-22T01:12:31;14.60;;;10.20;;
24439;SDS011;12618;54.386;18.394;2023-06-22T01:18:03;11.90;;;9.80;;
24439;SDS011;12618;54.386;18.394;2023-06-22T01:20:36;14.00;;;10.90;;
24439;SDS011;12618;54.386;18.394;2023-06-22T01:23:33;12.20;;;10.80;;
24439;SDS011;12618;54.386;18.394;2023-06-22T01:26:12;13.80;;;11.30;;
24439;SDS011;12618;54.386;18.394;2023-06-22T01:28:59;13.80;;;11.50;;
24439;SDS011;12618;54.386;18.394;2023-06-22T01:31:32;15.50;;;11.80;;
24439;SDS011;12618;54.386;18.394;2023-06-22T01:34:07;11.70;;;10.10;;
24439;SDS011;12618;54.386;18.394;2023-06-22T01:36:41;13.70;;;10.60;;
24439;SDS011;12618;54.386;18.394;2023-06-22T01:39:14;16.40;;;10.70;;
24439;SDS011;12618;54.386;18.394;2023-06-22T01:41:47;13.50;;;11.30;;
24439;SDS011;12618;54.386;18.394;2023-06-22T01:44:20;18.40;;;12.00;;
24439;SDS011;12618;54.386;18.394;2023-06-22T01:46:52;14.50;;;11.50;;
24439;SDS011;12618;54.386;18.394;2023-06-22T01:49:27;17.60;;;12.10;;
24439;SDS011;12618;54.386;18.394;2023-06-22T01:51:59;17.00;;;12.00;;
24439;SDS011;12618;54.386;18.394;2023-06-22T01:54:31;16.00;;;12.80;;
24439;SDS011;12618;54.386;18.394;2023-06-22T01:57:03;18.90;;;13.20;;
24439;SDS011;12618;54.386;18.394;2023-06-22T01:59:37;21.00;;;14.20;;
24439;SDS011;12618;54.386;18.394;2023-06-22T02:03:15;17.10;;;13.40;;
24439;SDS011;12618;54.386;18.394;2023-06-22T02:05:38;20.60;;;14.60;;
24439;SDS011;12618;54.386;18.394;2023-06-22T02:08:19;20.50;;;15.30;;
24439;SDS011;12618;54.386;18.394;2023-06-22T02:10:53;21.40;;;15.60;;
24439;SDS011;12618;54.386;18.394;2023-06-22T02:13:34;20.40;;;15.00;;
24439;SDS011;12618;54.386;18.394;2023-06-22T02:16:07;20.20;;;15.50;;
24439;SDS011;12618;54.386;18.394;2023-06-22T02:18:47;22.10;;;16.30;;
24439;SDS011;12618;54.386;18.394;2023-06-22T02:21:22;22.60;;;16.10;;
24439;SDS011;12618;54.386;18.394;2023-06-22T02:23:55;24.50;;;16.50;;
24439;SDS011;12618;54.386;18.394;2023-06-22T02:26:26;20.90;;;17.20;;
24439;SDS011;12618;54.386;18.394;2023-06-22T02:28:59;25.40;;;17.70;;
24439;SDS011;12618;54.386;18.394;2023-06-22T02:31:30;24.20;;;16.90;;
24439;SDS011;12618;54.386;18.394;2023-06-22T02:34:02;28.90;;;17.40;;
24439;SDS011;12618;54.386;18.394;2023-06-22T02:36:34;23.10;;;17.10;;
24439;SDS011;12618;54.386;18.394;2023-06-22T02:39:05;23.40;;;18.10;;
24439;SDS011;12618;54.386;18.394;2023-06-22T02:41:37;23.40;;;18.00;;
24439;SDS011;12618;54.386;18.394;2023-06-22T02:44:09;22.40;;;16.10;;
24439;SDS011;12618;54.386;18.394;2023-06-22T02:46:40;21.90;;;16.60;;
24439;SDS011;12618;54.386;18.394;2023-06-22T02:49:15;25.30;;;16.60;;
24439;SDS011;12618;54.386;18.394;2023-06-22T02:51:47;22.40;;;17.00;;
24439;SDS011;12618;54.386;18.394;2023-06-22T02:54:20;22.10;;;16.00;;
24439;SDS011;12618;54.386;18.394;2023-06-22T02:56:52;20.80;;;15.90;;
24439;SDS011;12618;54.386;18.394;2023-06-22T02:59:27;21.20;;;15.40;;
24439;SDS011;12618;54.386;18.394;2023-06-22T03:01:58;23.60;;;15.60;;
24439;SDS011;12618;54.386;18.394;2023-06-22T03:04:34;22.00;;;15.80;;
24439;SDS011;12618;54.386;18.394;2023-06-22T03:07:06;20.10;;;15.90;;
24439;SDS011;12618;54.386;18.394;2023-06-22T03:09:38;20.30;;;15.40;;
24439;SDS011;12618;54.386;18.394;2023-06-22T03:12:09;20.70;;;15.60;;
24439;SDS011;12618;54.386;18.394;2023-06-22T03:14:44;20.80;;;15.00;;
24439;SDS011;12618;54.386;18.394;2023-06-22T03:17:15;19.20;;;15.50;;
24439;SDS011;12618;54.386;18.394;2023-06-22T03:19:47;22.40;;;16.20;;
24439;SDS011;12618;54.386;18.394;2023-06-22T03:22:18;21.90;;;16.10;;
24439;SDS011;12618;54.386;18.394;2023-06-22T03:24:50;20.20;;;15.50;;
24439;SDS011;12618;54.386;18.394;2023-06-22T03:27:22;22.20;;;15.20;;
24439;SDS011;12618;54.386;18.394;2023-06-22T03:29:53;20.50;;;15.30;;
24439;SDS011;12618;54.386;18.394;2023-06-22T03:32:25;21.40;;;15.20;;
24439;SDS011;12618;54.386;18.394;2023-06-22T03:35:01;21.90;;;14.80;;
24439;SDS011;12618;54.386;18.394;2023-06-22T03:37:33;19.30;;;15.00;;
24439;SDS011;12618;54.386;18.394;2023-06-22T03:40:05;19.10;;;14.50;;
24439;SDS011;12618;54.386;18.394;2023-06-22T03:42:38;19.30;;;14.90;;
24439;SDS011;12618;54.386;18.394;2023-06-22T03:45:10;19.00;;;14.20;;
24439;SDS011;12618;54.386;18.394;2023-06-22T03:47:42;18.00;;;14.90;;
24439;SDS011;12618;54.386;18.394;2023-06-22T03:50:14;20.20;;;13.90;;
24439;SDS011;12618;54.386;18.394;2023-06-22T03:52:46;19.80;;;14.70;;
24439;SDS011;12618;54.386;18.394;2023-06-22T03:55:20;17.70;;;15.20;;
24439;SDS011;12618;54.386;18.394;2023-06-22T03:58:00;19.00;;;14.80;;
24439;SDS011;12618;54.386;18.394;2023-06-22T04:00:37;17.00;;;14.40;;
24439;SDS011;12618;54.386;18.394;2023-06-22T04:03:08;19.30;;;14.30;;
24439;SDS011;12618;54.386;18.394;2023-06-22T04:05:43;17.00;;;14.30;;
24439;SDS011;12618;54.386;18.394;2023-06-22T04:08:15;17.60;;;13.50;;
24439;SDS011;12618;54.386;18.394;2023-06-22T04:10:47;15.80;;;13.10;;
24439;SDS011;12618;54.386;18.394;2023-06-22T04:13:19;17.50;;;13.30;;
24439;SDS011;12618;54.386;18.394;2023-06-22T04:15:51;18.60;;;13.30;;
24439;SDS011;12618;54.386;18.394;2023-06-22T04:18:23;16.40;;;12.80;;
24439;SDS011;12618;54.386;18.394;2023-06-22T04:20:54;15.60;;;12.50;;
24439;SDS011;12618;54.386;18.394;2023-06-22T04:23:26;15.50;;;12.20;;
24439;SDS011;12618;54.386;18.394;2023-06-22T04:25:58;18.00;;;12.80;;
24439;SDS011;12618;54.386;18.394;2023-06-22T04:28:30;16.60;;;12.10;;
24439;SDS011;12618;54.386;18.394;2023-06-22T04:31:06;15.90;;;12.10;;
24439;SDS011;12618;54.386;18.394;2023-06-22T04:33:38;16.40;;;11.70;;
24439;SDS011;12618;54.386;18.394;2023-06-22T04:36:11;18.90;;;12.30;;
24439;SDS011;12618;54.386;18.394;2023-06-22T04:38:46;15.50;;;11.10;;
24439;SDS011;12618;54.386;18.394;2023-06-22T04:41:18;13.80;;;10.80;;
24439;SDS011;12618;54.386;18.394;2023-06-22T04:43:55;15.80;;;11.20;;
24439;SDS011;12618;54.386;18.394;2023-06-22T04:46:31;17.50;;;10.20;;
24439;SDS011;12618;54.386;18.394;2023-06-22T04:51:43;13.50;;;10.70;;
24439;SDS011;12618;54.386;18.394;2023-06-22T04:54:15;14.70;;;9.80;;
24439;SDS011;12618;54.386;18.394;2023-06-22T04:56:46;14.30;;;9.60;;
24439;SDS011;12618;54.386;18.394;2023-06-22T04:59:25;11.80;;;9.70;;
24439;SDS011;12618;54.386;18.394;2023-06-22T05:02:02;11.60;;;9.70;;
24439;SDS011;12618;54.386;18.394;2023-06-22T05:04:34;10.80;;;9.20;;
24439;SDS011;12618;54.386;18.394;2023-06-22T05:07:12;11.70;;;9.10;;
24439;SDS011;12618;54.386;18.394;2023-06-22T05:09:47;13.10;;;8.80;;
24439;SDS011;12618;54.386;18.394;2023-06-22T05:12:19;12.00;;;8.20;;
24439;SDS011;12618;54.386;18.394;2023-06-22T05:14:50;11.60;;;7.70;;
24439;SDS011;12618;54.386;18.394;2023-06-22T05:17:22;10.80;;;7.60;;
24439;SDS011;12618;54.386;18.394;2023-06-22T05:19:54;10.80;;;7.00;;
24439;SDS011;12618;54.386;18.394;2023-06-22T05:22:26;10.70;;;7.30;;
24439;SDS011;12618;54.386;18.394;2023-06-22T05:25:00;11.40;;;6.60;;
24439;SDS011;12618;54.386;18.394;2023-06-22T05:27:34;7.80;;;6.30;;
24439;SDS011;12618;54.386;18.394;2023-06-22T05:30:13;9.20;;;6.00;;
24439;SDS011;12618;54.386;18.394;2023-06-22T05:32:45;10.50;;;6.00;;
24439;SDS011;12618;54.386;18.394;2023-06-22T05:35:19;15.10;;;6.60;;
24439;SDS011;12618;54.386;18.394;2023-06-22T05:37:50;10.70;;;6.10;;
24439;SDS011;12618;54.386;18.394;2023-06-22T05:40:22;10.70;;;5.80;;
24439;SDS011;12618;54.386;18.394;2023-06-22T05:42:54;10.10;;;6.10;;
24439;SDS011;12618;54.386;18.394;2023-06-22T05:45:26;9.10;;;5.50;;
24439;SDS011;12618;54.386;18.394;2023-06-22T05:47:57;7.60;;;5.60;;
24439;SDS011;12618;54.386;18.394;2023-06-22T05:50:29;8.80;;;5.40;;
24439;SDS011;12618;54.386;18.394;2023-06-22T05:53:02;9.10;;;5.30;;
24439;SDS011;12618;54.386;18.394;2023-06-22T05:55:33;10.10;;;4.70;;
24439;SDS011;12618;54.386;18.394;2023-06-22T05:58:06;6.90;;;4.80;;
24439;SDS011;12618;54.386;18.394;2023-06-22T06:00:38;7.00;;;4.60;;
24439;SDS011;12618;54.386;18.394;2023-06-22T06:03:10;7.40;;;4.60;;
24439;SDS011;12618;54.386;18.394;2023-06-22T06:05:45;8.90;;;4.80;;
24439;SDS011;12618;54.386;18.394;2023-06-22T06:08:17;6.00;;;4.10;;
24439;SDS011;12618;54.386;18.394;2023-06-22T06:10:49;8.20;;;4.00;;
24439;SDS011;12618;54.386;18.394;2023-06-22T06:13:24;6.80;;;4.00;;
24439;SDS011;12618;54.386;18.394;2023-06-22T06:15:56;7.60;;;4.10;;
24439;SDS011;12618;54.386;18.394;2023-06-22T06:18:28;6.00;;;3.40;;
24439;SDS011;12618;54.386;18.394;2023-06-22T06:21:00;5.60;;;3.60;;
24439;SDS011;12618;54.386;18.394;2023-06-22T06:23:32;10.60;;;3.50;;
24439;SDS011;12618;54.386;18.394;2023-06-22T06:26:03;6.50;;;3.50;;
24439;SDS011;12618;54.386;18.394;2023-06-22T06:28:38;8.40;;;3.80;;
24439;SDS011;12618;54.386;18.394;2023-06-22T06:31:10;5.80;;;3.50;;
24439;SDS011;12618;54.386;18.394;2023-06-22T06:33:43;5.60;;;3.50;;
24439;SDS011;12618;54.386;18.394;2023-06-22T06:36:15;5.60;;;3.40;;
24439;SDS011;12618;54.386;18.394;2023-06-22T06:38:49;8.20;;;3.40;;
24439;SDS011;12618;54.386;18.394;2023-06-22T06:41:21;8.20;;;3.20;;
24439;SDS011;12618;54.386;18.394;2023-06-22T06:43:56;9.40;;;3.10;;
24439;SDS011;12618;54.386;18.394;2023-06-22T06:46:27;5.10;;;2.60;;
24439;SDS011;12618;54.386;18.394;2023-06-22T06:49:02;4.70;;;2.80;;
24439;SDS011;12618;54.386;18.394;2023-06-22T06:51:35;6.30;;;3.10;;
24439;SDS011;12618;54.386;18.394;2023-06-22T06:54:07;5.00;;;2.60;;
24439;SDS011;12618;54.386;18.394;2023-06-22T06:56:39;4.30;;;2.50;;
24439;SDS011;12618;54.386;18.394;2023-06-22T06:59:10;2.60;;;2.40;;
24439;SDS011;12618;54.386;18.394;2023-06-22T07:01:42;8.80;;;2.50;;
24439;SDS011;12618;54.386;18.394;2023-06-22T07:06:48;6.90;;;2.40;;
24439;SDS011;12618;54.386;18.394;2023-06-22T07:09:20;6.80;;;2.50;;
24439;SDS011;12618;54.386;18.394;2023-06-22T07:11:51;6.40;;;2.20;;
24439;SDS011;12618;54.386;18.394;2023-06-22T07:14:23;4.90;;;2.40;;
24439;SDS011;12618;54.386;18.394;2023-06-22T07:16:55;8.50;;;2.20;;
24439;SDS011;12618;54.386;18.394;2023-06-22T07:19:29;6.50;;;2.40;;
24439;SDS011;12618;54.386;18.394;2023-06-22T07:22:02;7.00;;;2.40;;
24439;SDS011;12618;54.386;18.394;2023-06-22T07:24:34;6.40;;;2.30;;
24439;SDS011;12618;54.386;18.394;2023-06-22T07:27:14;7.30;;;2.10;;
24439;SDS011;12618;54.386;18.394;2023-06-22T07:29:50;4.00;;;2.00;;
24439;SDS011;12618;54.386;18.394;2023-06-22T07:32:23;9.60;;;2.10;;
24439;SDS011;12618;54.386;18.394;2023-06-22T07:34:55;9.90;;;2.40;;
24439;SDS011;12618;54.386;18.394;2023-06-22T07:37:27;6.50;;;2.40;;
24439;SDS011;12618;54.386;18.394;2023-06-22T07:40:02;6.30;;;2.10;;
24439;SDS011;12618;54.386;18.394;2023-06-22T07:42:38;7.70;;;2.40;;
24439;SDS011;12618;54.386;18.394;2023-06-22T07:45:10;5.00;;;2.30;;
24439;SDS011;12618;54.386;18.394;2023-06-22T07:47:42;4.20;;;2.00;;
24439;SDS011;12618;54.386;18.394;2023-06-22T07:50:13;3.10;;;1.90;;
24439;SDS011;12618;54.386;18.394;2023-06-22T07:52:45;4.10;;;2.10;;
24439;SDS011;12618;54.386;18.394;2023-06-22T07:57:50;6.70;;;2.30;;
24439;SDS011;12618;54.386;18.394;2023-06-22T08:00:23;5.70;;;2.00;;
24439;SDS011;12618;54.386;18.394;2023-06-22T08:02:55;13.40;;;2.40;;
24439;SDS011;12618;54.386;18.394;2023-06-22T08:05:29;4.40;;;2.00;;
24439;SDS011;12618;54.386;18.394;2023-06-22T08:08:04;4.60;;;1.90;;
24439;SDS011;12618;54.386;18.394;2023-06-22T08:10:39;9.00;;;2.10;;
24439;SDS011;12618;54.386;18.394;2023-06-22T08:13:18;5.80;;;2.00;;
24439;SDS011;12618;54.386;18.394;2023-06-22T08:15:54;4.70;;;2.40;;
24439;SDS011;12618;54.386;18.394;2023-06-22T08:18:26;4.10;;;2.00;;
24439;SDS011;12618;54.386;18.394;2023-06-22T08:21:01;6.20;;;2.10;;
24439;SDS011;12618;54.386;18.394;2023-06-22T08:23:36;4.60;;;2.20;;
24439;SDS011;12618;54.386;18.394;2023-06-22T08:26:10;3.40;;;2.10;;
24439;SDS011;12618;54.386;18.394;2023-06-22T08:28:42;4.90;;;2.20;;
24439;SDS011;12618;54.386;18.394;2023-06-22T08:31:14;4.30;;;2.10;;
24439;SDS011;12618;54.386;18.394;2023-06-22T08:33:46;6.90;;;2.30;;
24439;SDS011;12618;54.386;18.394;2023-06-22T08:36:20;5.50;;;2.00;;
24439;SDS011;12618;54.386;18.394;2023-06-22T08:38:52;3.50;;;2.00;;
24439;SDS011;12618;54.386;18.394;2023-06-22T08:41:23;7.90;;;2.00;;
24439;SDS011;12618;54.386;18.394;2023-06-22T08:43:55;7.60;;;2.00;;
24439;SDS011;12618;54.386;18.394;2023-06-22T08:46:27;2.50;;;1.70;;
24439;SDS011;12618;54.386;18.394;2023-06-22T08:49:05;4.30;;;1.80;;
24439;SDS011;12618;54.386;18.394;2023-06-22T08:51:37;4.00;;;1.80;;
24439;SDS011;12618;54.386;18.394;2023-06-22T08:54:09;3.00;;;1.80;;
24439;SDS011;12618;54.386;18.394;2023-06-22T08:56:41;43.90;;;4.50;;
24439;SDS011;12618;54.386;18.394;2023-06-22T08:59:15;3.90;;;1.80;;
24439;SDS011;12618;54.386;18.394;2023-06-22T09:01:47;3.60;;;1.70;;
24439;SDS011;12618;54.386;18.394;2023-06-22T09:04:19;7.20;;;2.00;;
24439;SDS011;12618;54.386;18.394;2023-06-22T09:06:54;3.50;;;1.80;;
24439;SDS011;12618;54.386;18.394;2023-06-22T09:09:25;3.30;;;1.50;;
24439;SDS011;12618;54.386;18.394;2023-06-22T09:11:57;6.60;;;1.90;;
24439;SDS011;12618;54.386;18.394;2023-06-22T09:14:29;4.50;;;1.80;;
24439;SDS011;12618;54.386;18.394;2023-06-22T09:17:01;2.90;;;1.60;;
24439;SDS011;12618;54.386;18.394;2023-06-22T09:19:33;3.50;;;2.00;;
24439;SDS011;12618;54.386;18.394;2023-06-22T09:22:05;7.00;;;1.80;;
24439;SDS011;12618;54.386;18.394;2023-06-22T09:27:09;4.00;;;1.80;;
24439;SDS011;12618;54.386;18.394;2023-06-22T09:29:41;6.20;;;2.10;;
24439;SDS011;12618;54.386;18.394;2023-06-22T09:32:13;4.70;;;1.90;;
24439;SDS011;12618;54.386;18.394;2023-06-22T09:34:44;5.00;;;1.90;;
24439;SDS011;12618;54.386;18.394;2023-06-22T09:37:16;4.90;;;1.80;;
24439;SDS011;12618;54.386;18.394;2023-06-22T09:39:48;6.60;;;2.00;;
24439;SDS011;12618;54.386;18.394;2023-06-22T09:42:20;4.60;;;2.00;;
24439;SDS011;12618;54.386;18.394;2023-06-22T09:44:55;3.60;;;1.50;;
24439;SDS011;12618;54.386;18.394;2023-06-22T09:47:27;8.50;;;2.00;;
24439;SDS011;12618;54.386;18.394;2023-06-22T09:49:59;4.40;;;1.80;;
24439;SDS011;12618;54.386;18.394;2023-06-22T09:52:31;4.00;;;2.00;;
24439;SDS011;12618;54.386;18.394;2023-06-22T09:55:13;5.70;;;1.90;;
24439;SDS011;12618;54.386;18.394;2023-06-22T09:57:46;5.40;;;2.10;;
24439;SDS011;12618;54.386;18.394;2023-06-22T10:00:19;6.40;;;2.10;;
24439;SDS011;12618;54.386;18.394;2023-06-22T10:02:51;2.60;;;1.60;;
24439;SDS011;12618;54.386;18.394;2023-06-22T10:05:24;4.10;;;1.80;;
24439;SDS011;12618;54.386;18.394;2023-06-22T10:07:57;7.90;;;2.00;;
24439;SDS011;12618;54.386;18.394;2023-06-22T10:10:28;4.30;;;1.90;;
24439;SDS011;12618;54.386;18.394;2023-06-22T10:13:02;3.10;;;1.80;;
24439;SDS011;12618;54.386;18.394;2023-06-22T10:15:41;2.50;;;1.80;;
24439;SDS011;12618;54.386;18.394;2023-06-22T10:18:14;6.10;;;1.60;;
24439;SDS011;12618;54.386;18.394;2023-06-22T10:20:47;4.80;;;2.00;;
24439;SDS011;12618;54.386;18.394;2023-06-22T10:23:25;3.40;;;2.00;;
24439;SDS011;12618;54.386;18.394;2023-06-22T10:25:57;4.00;;;1.90;;
24439;SDS011;12618;54.386;18.394;2023-06-22T10:28:29;4.30;;;1.80;;
24439;SDS011;12618;54.386;18.394;2023-06-22T10:31:03;5.80;;;2.20;;
24439;SDS011;12618;54.386;18.394;2023-06-22T10:33:35;4.20;;;1.90;;
24439;SDS011;12618;54.386;18.394;2023-06-22T10:36:07;3.20;;;2.00;;
24439;SDS011;12618;54.386;18.394;2023-06-22T10:38:41;2.30;;;1.70;;
24439;SDS011;12618;54.386;18.394;2023-06-22T10:41:13;2.90;;;1.80;;
24439;SDS011;12618;54.386;18.394;2023-06-22T10:43:46;3.90;;;2.00;;
24439;SDS011;12618;54.386;18.394;2023-06-22T10:46:17;3.40;;;1.80;;
24439;SDS011;12618;54.386;18.394;2023-06-22T10:48:49;12.10;;;2.00;;
24439;SDS011;12618;54.386;18.394;2023-06-22T10:51:21;2.30;;;1.60;;
24439;SDS011;12618;54.386;18.394;2023-06-22T10:53:53;2.50;;;1.80;;
24439;SDS011;12618;54.386;18.394;2023-06-22T10:56:24;3.20;;;1.80;;
24439;SDS011;12618;54.386;18.394;2023-06-22T10:58:56;3.10;;;1.50;;
24439;SDS011;12618;54.386;18.394;2023-06-22T11:01:28;3.00;;;1.60;;
24439;SDS011;12618;54.386;18.394;2023-06-22T11:04:06;2.80;;;1.60;;
24439;SDS011;12618;54.386;18.394;2023-06-22T11:06:38;1.80;;;1.60;;
24439;SDS011;12618;54.386;18.394;2023-06-22T11:09:10;2.80;;;1.40;;
24439;SDS011;12618;54.386;18.394;2023-06-22T11:11:47;7.80;;;1.70;;
24439;SDS011;12618;54.386;18.394;2023-06-22T11:14:20;6.10;;;1.60;;
24439;SDS011;12618;54.386;18.394;2023-06-22T11:16:53;4.70;;;1.80;;
24439;SDS011;12618;54.386;18.394;2023-06-22T11:19:25;3.50;;;1.60;;
24439;SDS011;12618;54.386;18.394;2023-06-22T11:21:57;2.90;;;1.80;;
24439;SDS011;12618;54.386;18.394;2023-06-22T11:24:29;2.10;;;1.60;;
24439;SDS011;12618;54.386;18.394;2023-06-22T11:27:01;2.60;;;1.80;;
24439;SDS011;12618;54.386;18.394;2023-06-22T11:29:32;3.00;;;1.60;;
24439;SDS011;12618;54.386;18.394;2023-06-22T11:32:08;2.60;;;1.70;;
24439;SDS011;12618;54.386;18.394;2023-06-22T11:34:43;4.80;;;1.60;;
24439;SDS011;12618;54.386;18.394;2023-06-22T11:37:15;2.50;;;1.80;;
24439;SDS011;12618;54.386;18.394;2023-06-22T11:39:47;3.20;;;1.80;;
24439;SDS011;12618;54.386;18.394;2023-06-22T11:42:36;2.60;;;1.90;;
24439;SDS011;12618;54.386;18.394;2023-06-22T11:45:08;4.40;;;1.80;;
24439;SDS011;12618;54.386;18.394;2023-06-22T11:47:40;3.80;;;1.90;;
24439;SDS011;12618;54.386;18.394;2023-06-22T11:50:12;4.00;;;1.80;;
24439;SDS011;12618;54.386;18.394;2023-06-22T11:52:44;5.30;;;1.90;;
24439;SDS011;12618;54.386;18.394;2023-06-22T11:55:16;4.40;;;2.20;;
24439;SDS011;12618;54.386;18.394;2023-06-22T11:57:53;2.90;;;2.00;;
24439;SDS011;12618;54.386;18.394;2023-06-22T12:00:31;2.90;;;1.90;;
24439;SDS011;12618;54.386;18.394;2023-06-22T12:03:12;8.00;;;2.30;;
24439;SDS011;12618;54.386;18.394;2023-06-22T12:05:49;3.50;;;2.00;;
24439;SDS011;12618;54.386;18.394;2023-06-22T12:08:23;3.60;;;1.80;;
24439;SDS011;12618;54.386;18.394;2023-06-22T12:10:55;4.50;;;2.00;;
24439;SDS011;12618;54.386;18.394;2023-06-22T12:13:28;4.50;;;2.10;;
24439;SDS011;12618;54.386;18.394;2023-06-22T12:16:00;2.80;;;1.90;;
24439;SDS011;12618;54.386;18.394;2023-06-22T12:18:32;4.70;;;2.10;;
24439;SDS011;12618;54.386;18.394;2023-06-22T12:21:04;4.50;;;2.10;;
24439;SDS011;12618;54.386;18.394;2023-06-22T12:23:36;2.30;;;1.90;;
24439;SDS011;12618;54.386;18.394;2023-06-22T12:26:08;6.60;;;2.30;;
24439;SDS011;12618;54.386;18.394;2023-06-22T12:28:39;4.00;;;2.30;;
24439;SDS011;12618;54.386;18.394;2023-06-22T12:31:11;5.20;;;2.30;;
24439;SDS011;12618;54.386;18.394;2023-06-22T12:33:43;3.60;;;1.80;;
24439;SDS011;12618;54.386;18.394;2023-06-22T12:36:15;3.60;;;2.00;;
24439;SDS011;12618;54.386;18.394;2023-06-22T12:38:47;2.20;;;2.00;;
24439;SDS011;12618;54.386;18.394;2023-06-22T12:41:19;4.60;;;2.00;;
24439;SDS011;12618;54.386;18.394;2023-06-22T12:43:51;4.80;;;2.00;;
24439;SDS011;12618;54.386;18.394;2023-06-22T12:46:23;2.50;;;1.80;;
24439;SDS011;12618;54.386;18.394;2023-06-22T12:48:55;2.90;;;1.80;;
24439;SDS011;12618;54.386;18.394;2023-06-22T12:51:27;6.00;;;2.00;;
24439;SDS011;12618;54.386;18.394;2023-06-22T12:53:58;5.50;;;2.30;;
24439;SDS011;12618;54.386;18.394;2023-06-22T12:56:30;6.50;;;2.80;;
24439;SDS011;12618;54.386;18.394;2023-06-22T12:59:02;2.60;;;2.00;;
24439;SDS011;12618;54.386;18.394;2023-06-22T13:01:35;10.90;;;2.60;;
24439;SDS011;12618;54.386;18.394;2023-06-22T13:04:08;4.10;;;2.10;;
24439;SDS011;12618;54.386;18.394;2023-06-22T13:06:42;6.80;;;2.20;;
24439;SDS011;12618;54.386;18.394;2023-06-22T13:09:15;4.40;;;2.40;;
24439;SDS011;12618;54.386;18.394;2023-06-22T13:11:52;3.30;;;2.40;;
24439;SDS011;12618;54.386;18.394;2023-06-22T13:14:24;7.60;;;2.40;;
24439;SDS011;12618;54.386;18.394;2023-06-22T13:16:58;5.30;;;2.40;;
24439;SDS011;12618;54.386;18.394;2023-06-22T13:19:30;7.70;;;2.40;;
24439;SDS011;12618;54.386;18.394;2023-06-22T13:22:04;3.90;;;2.10;;
24439;SDS011;12618;54.386;18.394;2023-06-22T13:24:36;8.40;;;2.20;;
24439;SDS011;12618;54.386;18.394;2023-06-22T13:27:08;3.60;;;1.80;;
24439;SDS011;12618;54.386;18.394;2023-06-22T13:29:40;6.00;;;2.00;;
24439;SDS011;12618;54.386;18.394;2023-06-22T13:32:11;4.60;;;1.90;;
24439;SDS011;12618;54.386;18.394;2023-06-22T13:34:43;11.20;;;1.80;;
24439;SDS011;12618;54.386;18.394;2023-06-22T13:37:15;3.00;;;1.50;;
24439;SDS011;12618;54.386;18.394;2023-06-22T13:39:47;2.40;;;1.70;;
24439;SDS011;12618;54.386;18.394;2023-06-22T13:42:19;3.40;;;1.60;;
24439;SDS011;12618;54.386;18.394;2023-06-22T13:44:51;3.00;;;1.90;;
24439;SDS011;12618;54.386;18.394;2023-06-22T13:47:22;3.40;;;1.70;;
24439;SDS011;12618;54.386;18.394;2023-06-22T13:49:54;2.90;;;1.80;;
24439;SDS011;12618;54.386;18.394;2023-06-22T13:52:27;2.90;;;1.80;;
24439;SDS011;12618;54.386;18.394;2023-06-22T13:54:58;6.10;;;2.00;;
24439;SDS011;12618;54.386;18.394;2023-06-22T13:57:30;4.40;;;2.00;;
24439;SDS011;12618;54.386;18.394;2023-06-22T14:00:03;4.20;;;1.90;;
24439;SDS011;12618;54.386;18.394;2023-06-22T14:02:40;4.20;;;2.20;;
24439;SDS011;12618;54.386;18.394;2023-06-22T14:05:12;4.00;;;2.10;;
24439;SDS011;12618;54.386;18.394;2023-06-22T14:07:45;2.10;;;1.80;;
24439;SDS011;12618;54.386;18.394;2023-06-22T14:10:16;2.00;;;1.60;;
24439;SDS011;12618;54.386;18.394;2023-06-22T14:12:48;2.60;;;1.80;;
24439;SDS011;12618;54.386;18.394;2023-06-22T14:15:20;2.70;;;1.90;;
24439;SDS011;12618;54.386;18.394;2023-06-22T14:17:52;7.00;;;2.10;;
24439;SDS011;12618;54.386;18.394;2023-06-22T14:20:23;1.90;;;1.70;;
24439;SDS011;12618;54.386;18.394;2023-06-22T14:22:55;2.90;;;1.90;;
24439;SDS011;12618;54.386;18.394;2023-06-22T14:25:27;3.60;;;1.70;;
24439;SDS011;12618;54.386;18.394;2023-06-22T14:27:59;3.70;;;1.70;;
24439;SDS011;12618;54.386;18.394;2023-06-22T14:30:30;6.10;;;1.80;;
24439;SDS011;12618;54.386;18.394;2023-06-22T14:33:02;5.00;;;2.10;;
24439;SDS011;12618;54.386;18.394;2023-06-22T14:35:34;3.20;;;1.90;;
24439;SDS011;12618;54.386;18.394;2023-06-22T14:38:06;4.90;;;1.80;;
24439;SDS011;12618;54.386;18.394;2023-06-22T14:40:38;3.00;;;1.80;;
24439;SDS011;12618;54.386;18.394;2023-06-22T14:43:30;3.90;;;1.90;;
24439;SDS011;12618;54.386;18.394;2023-06-22T14:46:01;3.30;;;1.80;;
24439;SDS011;12618;54.386;18.394;2023-06-22T14:48:33;3.70;;;2.10;;
24439;SDS011;12618;54.386;18.394;2023-06-22T14:51:05;4.50;;;1.60;;
24439;SDS011;12618;54.386;18.394;2023-06-22T14:53:37;1.90;;;1.60;;
24439;SDS011;12618;54.386;18.394;2023-06-22T14:56:10;4.80;;;2.00;;
24439;SDS011;12618;54.386;18.394;2023-06-22T14:58:42;7.60;;;1.90;;
24439;SDS011;12618;54.386;18.394;2023-06-22T15:01:17;6.70;;;1.90;;
24439;SDS011;12618;54.386;18.394;2023-06-22T15:03:52;2.80;;;1.50;;
24439;SDS011;12618;54.386;18.394;2023-06-22T15:06:24;4.60;;;1.80;;
24439;SDS011;12618;54.386;18.394;2023-06-22T15:08:56;4.00;;;2.10;;
24439;SDS011;12618;54.386;18.394;2023-06-22T15:11:27;4.10;;;1.80;;
24439;SDS011;12618;54.386;18.394;2023-06-22T15:14:01;3.70;;;1.90;;